createdAt,value
2019-05-07T00:01:02.713Z,94105.77
2019-05-07T00:03:32.687Z,94083.72
2019-05-07T00:06:02.658Z,94081.38
2019-05-07T00:08:32.211Z,94082.16
2019-05-07T00:11:02.510Z,94082.16
2019-05-07T00:13:33.117Z,94084.75
2019-05-07T00:16:02.501Z,94073.22
2019-05-07T00:18:32.367Z,94073.22
2019-05-07T00:21:03.364Z,94088.32
2019-05-07T00:23:32.514Z,94087.02
2019-05-07T00:26:02.537Z,94084.45
2019-05-07T00:28:32.435Z,94079.28
2019-05-07T00:31:02.841Z,94073.16
2019-05-07T00:33:32.342Z,94079.97
2019-05-07T00:36:02.675Z,94077.64
2019-05-07T00:38:32.785Z,94073.69
2019-05-07T00:41:05.851Z,94069.75
2019-05-07T00:43:35.155Z,94067.56
2019-05-07T00:46:05.285Z,94060.19
2019-05-07T00:48:33.728Z,94060.60
2019-05-07T00:51:22.453Z,94055.44
2019-05-07T00:53:52.053Z,94052.00
2019-05-07T00:56:22.349Z,94054.24
2019-05-07T00:58:52.718Z,94056.96
2019-05-07T01:01:22.727Z,94050.55
2019-05-07T01:03:53.363Z,94052.42
2019-05-07T01:06:22.743Z,94045.79
2019-05-07T01:08:52.526Z,94049.07
2019-05-07T01:11:22.636Z,94048.66
2019-05-07T01:13:52.058Z,94036.93
2019-05-07T01:16:22.187Z,94036.93
2019-05-07T01:18:50.958Z,94036.68
2019-05-07T01:21:19.446Z,94036.40
2019-05-07T01:23:47.974Z,94031.80
2019-05-07T01:26:16.500Z,94034.92
2019-05-07T01:29:03.037Z,94031.51
2019-05-07T01:31:34.368Z,94029.70
2019-05-07T01:34:23.067Z,94029.56
2019-05-07T01:36:52.424Z,94019.89
2019-05-07T01:39:23.016Z,94019.89
2019-05-07T01:41:52.452Z,94021.77
2019-05-07T01:44:22.170Z,94017.52
2019-05-07T01:46:53.043Z,94015.81
2019-05-07T01:49:23.866Z,94008.70
2019-05-07T01:51:53.017Z,94010.89
2019-05-07T01:54:23.686Z,93988.24
2019-05-07T01:56:52.267Z,93988.24
2019-05-07T01:59:22.499Z,94008.66
2019-05-07T02:01:52.771Z,94010.96
2019-05-07T02:04:25.526Z,94012.25
2019-05-07T02:07:13.813Z,94008.91
2019-05-07T02:09:52.517Z,94005.48
2019-05-07T02:12:25.237Z,94009.25
2019-05-07T02:14:53.755Z,94011.84
2019-05-07T02:17:22.889Z,94008.13
2019-05-07T02:19:52.766Z,94014.24
2019-05-07T02:22:22.723Z,94004.19
2019-05-07T02:24:52.377Z,93996.47
2019-05-07T02:27:22.092Z,93996.47
2019-05-07T02:29:52.912Z,93995.59
2019-05-07T02:32:23.732Z,93978.32
2019-05-07T02:34:54.218Z,93978.32
2019-05-07T02:37:26.279Z,93996.81
2019-05-07T02:39:54.842Z,94000.25
2019-05-07T02:42:24.050Z,93998.27
2019-05-07T02:45:04.449Z,94000.14
2019-05-07T02:47:33.905Z,93995.52
2019-05-07T02:50:04.046Z,93995.60
2019-05-07T02:52:53.381Z,93997.02
2019-05-07T02:55:24.816Z,93994.31
2019-05-07T02:57:54.246Z,93995.56
2019-05-07T03:00:24.157Z,93993.68
2019-05-07T03:02:53.427Z,93996.93
2019-05-07T03:05:22.914Z,93995.09
2019-05-07T03:07:53.589Z,93997.41
2019-05-07T03:10:23.678Z,93996.38
2019-05-07T03:12:53.703Z,94000.72
2019-05-07T03:15:24.251Z,94002.72
2019-05-07T03:17:53.747Z,94007.30
2019-05-07T03:20:24.096Z,94004.13
2019-05-07T03:22:53.897Z,93999.63
2019-05-07T03:25:33.539Z,94004.28
2019-05-07T03:28:00.202Z,94000.48
2019-05-07T03:30:45.615Z,93998.77
2019-05-07T03:33:16.822Z,93998.61
2019-05-07T03:35:47.478Z,93994.89
2019-05-07T03:38:15.899Z,93997.47
2019-05-07T03:40:44.989Z,93995.83
2019-05-07T03:43:14.288Z,94000.09
2019-05-07T03:45:53.705Z,93999.30
2019-05-07T03:48:23.705Z,94003.30
2019-05-07T03:50:53.131Z,94003.30
2019-05-07T03:53:23.122Z,94005.16
2019-05-07T03:55:53.679Z,94003.49
2019-05-07T03:58:23.548Z,94004.48
2019-05-07T04:00:53.697Z,94008.03
2019-05-07T04:03:24.494Z,94004.25
2019-05-07T04:05:53.271Z,94006.08
2019-05-07T04:08:23.593Z,94003.00
2019-05-07T04:10:53.773Z,94004.91
2019-05-07T04:13:23.948Z,94004.44
2019-05-07T04:15:52.755Z,94008.50
2019-05-07T04:18:23.727Z,94007.07
2019-05-07T04:20:53.944Z,94010.10
2019-05-07T04:23:23.240Z,94016.77
2019-05-07T04:25:56.281Z,94016.33
2019-05-07T04:28:33.470Z,94012.08
2019-05-07T04:31:03.146Z,94017.67
2019-05-07T04:33:33.637Z,94018.91
2019-05-07T04:36:09.511Z,94023.13
2019-05-07T04:38:37.917Z,94016.17
2019-05-07T04:41:06.338Z,94016.13
2019-05-07T04:43:34.875Z,94019.45
2019-05-07T04:46:03.586Z,94011.06
2019-05-07T04:48:34.075Z,94006.45
2019-05-07T04:51:03.847Z,94006.42
2019-05-07T04:53:32.981Z,94009.98
2019-05-07T04:56:03.386Z,94005.38
2019-05-07T04:58:33.737Z,94004.44
2019-05-07T05:01:03.265Z,94010.99
2019-05-07T05:03:34.604Z,93996.44
2019-05-07T05:06:02.760Z,94001.61
2019-05-07T05:08:32.555Z,94004.70
2019-05-07T05:11:03.336Z,94013.47
2019-05-07T05:13:33.018Z,94018.06
2019-05-07T05:16:03.216Z,94011.00
2019-05-07T05:18:33.003Z,94013.52
2019-05-07T05:21:06.012Z,94017.26
2019-05-07T05:23:36.091Z,93998.98
2019-05-07T05:26:04.606Z,94016.26
2019-05-07T05:28:33.056Z,94023.13
2019-05-07T05:31:05.390Z,94023.13
2019-05-07T05:33:33.917Z,94017.66
2019-05-07T05:36:03.075Z,94019.47
2019-05-07T05:38:32.921Z,94008.06
2019-05-07T05:41:02.707Z,94011.22
2019-05-07T05:43:35.741Z,94014.89
2019-05-07T05:46:08.762Z,94022.23
2019-05-07T05:48:37.183Z,94020.88
2019-05-07T05:51:23.790Z,94017.27
2019-05-07T05:54:02.580Z,94017.71
2019-05-07T05:56:38.407Z,94017.08
2019-05-07T05:59:27.897Z,94019.41
2019-05-07T06:01:55.440Z,94017.37
2019-05-07T06:04:25.500Z,94020.69
2019-05-07T06:07:08.757Z,94010.95
2019-05-07T06:09:38.637Z,94020.64
2019-05-07T06:12:22.119Z,94017.75
2019-05-07T06:14:53.907Z,94017.20
2019-05-07T06:17:39.243Z,94013.09
2019-05-07T06:20:22.740Z,94017.95
2019-05-07T06:23:08.905Z,94020.95
2019-05-07T06:25:37.652Z,94021.31
2019-05-07T06:28:06.063Z,94011.91
2019-05-07T06:30:34.651Z,94019.02
2019-05-07T06:33:03.058Z,94017.30
2019-05-07T06:35:32.458Z,94024.38
2019-05-07T06:38:02.902Z,94020.79
2019-05-07T06:40:33.026Z,94016.78
2019-05-07T06:43:05.587Z,94018.92
2019-05-07T06:45:38.840Z,94021.25
2019-05-07T06:48:07.288Z,94019.47
2019-05-07T06:50:35.716Z,94013.08
2019-05-07T06:53:04.219Z,94019.13
2019-05-07T06:55:33.108Z,94016.67
2019-05-07T06:58:02.626Z,94013.03
2019-05-07T07:00:33.226Z,94013.77
2019-05-07T07:03:03.387Z,94018.20
2019-05-07T07:05:33.447Z,94015.17
2019-05-07T07:08:20.166Z,94011.16
2019-05-07T07:11:02.771Z,94001.17
2019-05-07T07:13:32.249Z,93997.94
2019-05-07T07:16:01.975Z,93993.48
2019-05-07T07:18:32.276Z,93993.25
2019-05-07T07:21:02.222Z,93993.05
2019-05-07T07:23:32.447Z,93989.91
2019-05-07T07:26:03.238Z,93982.20
2019-05-07T07:28:32.705Z,93987.07
2019-05-07T07:31:22.628Z,93986.84
2019-05-07T07:33:53.321Z,93983.92
2019-05-07T07:36:23.454Z,93988.48
2019-05-07T07:38:52.706Z,93975.19
2019-05-07T07:41:28.702Z,93976.47
2019-05-07T07:43:57.262Z,93973.44
2019-05-07T07:46:25.861Z,93968.09
2019-05-07T07:49:06.818Z,93969.08
2019-05-07T07:51:37.949Z,93971.59
2019-05-07T07:53:55.035Z,93964.50
2019-05-07T07:56:47.844Z,93964.91
2019-05-07T07:59:06.173Z,93958.59
2019-05-07T08:01:54.628Z,93961.95
2019-05-07T08:04:23.189Z,93966.92
2019-05-07T08:07:03.583Z,93957.28
2019-05-07T08:09:34.422Z,93959.52
2019-05-07T08:12:03.948Z,93963.48
2019-05-07T08:14:32.936Z,93968.06
2019-05-07T08:17:03.061Z,93967.00
2019-05-07T08:19:32.846Z,93962.47
2019-05-07T08:22:02.881Z,93962.66
2019-05-07T08:24:32.217Z,93949.13
2019-05-07T08:27:02.444Z,93950.58
2019-05-07T08:29:32.571Z,93947.97
2019-05-07T08:32:03.216Z,93944.63
2019-05-07T08:34:36.151Z,93946.93
2019-05-07T08:37:04.676Z,93939.19
2019-05-07T08:39:33.189Z,93933.01
2019-05-07T08:42:02.134Z,93923.79
2019-05-07T08:44:44.695Z,93926.44
2019-05-07T08:47:14.795Z,93921.59
2019-05-07T08:49:43.703Z,93923.28
2019-05-07T08:52:12.220Z,93929.64
2019-05-07T08:54:42.632Z,93921.60
2019-05-07T08:57:12.172Z,93926.12
2019-05-07T08:59:43.719Z,93925.52
2019-05-07T09:02:12.575Z,93922.67
2019-05-07T09:04:41.827Z,93919.93
2019-05-07T09:07:12.829Z,93910.55
2019-05-07T09:09:42.630Z,93905.81
2019-05-07T09:12:12.423Z,93894.23
2019-05-07T09:14:42.579Z,93899.61
2019-05-07T09:17:12.750Z,93897.83
2019-05-07T09:19:50.665Z,93898.09
2019-05-07T09:22:12.703Z,93897.34
2019-05-07T09:24:42.435Z,93890.13
2019-05-07T09:27:18.506Z,93881.58
2019-05-07T09:29:52.382Z,93879.83
2019-05-07T09:32:28.297Z,93880.48
2019-05-07T09:34:58.445Z,93873.92
2019-05-07T09:37:32.598Z,93882.30
2019-05-07T09:40:03.157Z,93878.00
2019-05-07T09:42:33.190Z,93870.69
2019-05-07T09:45:02.085Z,93872.41
2019-05-07T09:47:32.478Z,93872.61
2019-05-07T09:50:05.463Z,93869.98
2019-05-07T09:52:32.083Z,93866.00
2019-05-07T09:55:11.033Z,93868.38
2019-05-07T09:57:34.638Z,93861.11
2019-05-07T10:00:02.569Z,93864.19
2019-05-07T10:02:32.076Z,93866.05
2019-05-07T10:05:02.494Z,93870.66
2019-05-07T10:07:32.399Z,93862.95
2019-05-07T10:10:03.287Z,93863.67
2019-05-07T10:12:35.835Z,93863.59
2019-05-07T10:15:05.555Z,93855.22
2019-05-07T10:17:52.230Z,93853.13
2019-05-07T10:20:22.745Z,93848.19
2019-05-07T10:22:52.036Z,93849.38
2019-05-07T10:25:22.452Z,93850.17
2019-05-07T10:27:53.035Z,93847.53
2019-05-07T10:30:21.906Z,93847.02
2019-05-07T10:32:52.486Z,93837.53
2019-05-07T10:35:22.738Z,93837.53
2019-05-07T10:37:52.765Z,93820.94
2019-05-07T10:40:22.376Z,93828.81
2019-05-07T10:42:51.954Z,93830.66
2019-05-07T10:45:38.713Z,93828.06
2019-05-07T10:48:17.758Z,93832.33
2019-05-07T10:50:57.134Z,93821.69
2019-05-07T10:53:25.649Z,93821.02
2019-05-07T10:55:54.072Z,93822.38
2019-05-07T10:58:22.576Z,93822.66
2019-05-07T11:00:52.315Z,93825.16
2019-05-07T11:03:21.955Z,93824.05
2019-05-07T11:05:50.677Z,93819.73
2019-05-07T11:08:19.183Z,93815.72
2019-05-07T11:10:47.882Z,93811.41
2019-05-07T11:13:16.452Z,93808.61
2019-05-07T11:15:46.534Z,93802.85
2019-05-07T11:18:21.729Z,93806.84
2019-05-07T11:20:52.841Z,93813.58
2019-05-07T11:23:22.113Z,93808.23
2019-05-07T11:25:52.687Z,93801.58
2019-05-07T11:28:22.680Z,93799.67
2019-05-07T11:30:51.394Z,93798.86
2019-05-07T11:33:21.879Z,93791.64
2019-05-07T11:35:49.994Z,93792.75
2019-05-07T11:38:24.072Z,93784.36
2019-05-07T11:40:48.979Z,93782.22
2019-05-07T11:43:22.315Z,93769.91
2019-05-07T11:45:54.345Z,93768.98
2019-05-07T11:48:24.234Z,93765.86
2019-05-07T11:51:03.801Z,93762.05
2019-05-07T11:53:26.246Z,93760.61
2019-05-07T11:55:54.662Z,93756.55
2019-05-07T11:58:23.191Z,93756.86
2019-05-07T12:00:56.255Z,93758.25
2019-05-07T12:03:24.746Z,93752.39
2019-05-07T12:05:53.194Z,93746.20
2019-05-07T12:08:22.422Z,93747.87
2019-05-07T12:10:52.015Z,93754.36
2019-05-07T12:13:21.772Z,93747.69
2019-05-07T12:15:52.137Z,93741.75
2019-05-07T12:18:22.740Z,93744.45
2019-05-07T12:20:53.900Z,93741.30
2019-05-07T12:23:22.638Z,93742.01
2019-05-07T12:25:52.885Z,93738.45
2019-05-07T12:28:22.537Z,93741.69
2019-05-07T12:30:58.792Z,93737.83
2019-05-07T12:33:44.076Z,93734.06
2019-05-07T12:36:14.232Z,93729.20
2019-05-07T12:38:42.744Z,93724.09
2019-05-07T12:41:29.713Z,93720.72
2019-05-07T12:43:59.564Z,93719.53
2019-05-07T12:46:28.427Z,93714.30
2019-05-07T12:48:57.024Z,93712.09
2019-05-07T12:51:34.570Z,93712.03
2019-05-07T12:54:03.162Z,93714.06
2019-05-07T12:56:32.074Z,93712.34
2019-05-07T12:59:02.202Z,93715.81
2019-05-07T13:01:32.940Z,93717.97
2019-05-07T13:04:11.796Z,93707.65
2019-05-07T13:06:44.933Z,93711.52
2019-05-07T13:09:13.834Z,93712.23
2019-05-07T13:11:42.543Z,93711.43
2019-05-07T13:14:12.556Z,93713.30
2019-05-07T13:16:41.247Z,93708.19
2019-05-07T13:19:09.751Z,93706.48
2019-05-07T13:21:49.192Z,93700.20
2019-05-07T13:24:08.546Z,93701.58
2019-05-07T13:26:37.027Z,93699.58
2019-05-07T13:29:05.581Z,93703.20
2019-05-07T13:31:35.873Z,93696.16
2019-05-07T13:34:04.532Z,93687.86
2019-05-07T13:36:35.226Z,93685.97
2019-05-07T13:39:23.491Z,93684.63
2019-05-07T13:41:53.828Z,93676.86
2019-05-07T13:44:42.469Z,93674.91
2019-05-07T13:47:27.843Z,93675.97
2019-05-07T13:49:57.010Z,93669.27
2019-05-07T13:52:25.565Z,93667.78
2019-05-07T13:54:54.667Z,93661.50
2019-05-07T13:57:23.433Z,93661.53
2019-05-07T13:59:53.010Z,93657.11
2019-05-07T14:02:26.197Z,93655.66
2019-05-07T14:04:54.751Z,93655.95
2019-05-07T14:07:26.659Z,93660.77
2019-05-07T14:09:55.249Z,93650.78
2019-05-07T14:12:23.883Z,93643.87
2019-05-07T14:14:53.013Z,93649.38
2019-05-07T14:17:22.095Z,93648.53
2019-05-07T14:19:52.872Z,93649.12
2019-05-07T14:22:22.551Z,93644.57
2019-05-07T14:24:52.973Z,93640.64
2019-05-07T14:27:21.792Z,93636.98
2019-05-07T14:29:52.096Z,93636.22
2019-05-07T14:32:25.003Z,93632.62
2019-05-07T14:35:12.332Z,93634.23
2019-05-07T14:37:42.563Z,93632.72
2019-05-07T14:40:12.921Z,93624.70
2019-05-07T14:42:43.164Z,93628.84
2019-05-07T14:45:11.978Z,93632.78
2019-05-07T14:47:44.429Z,93616.16
2019-05-07T14:50:12.352Z,93614.89
2019-05-07T14:52:43.075Z,93619.29
2019-05-07T14:55:12.851Z,93619.41
2019-05-07T14:57:42.084Z,93615.18
2019-05-07T15:00:12.243Z,93617.38
2019-05-07T15:02:42.141Z,93614.02
2019-05-07T15:05:11.989Z,93612.23
2019-05-07T15:07:40.929Z,93609.91
2019-05-07T15:10:10.650Z,93608.28
2019-05-07T15:12:39.263Z,93605.66
2019-05-07T15:15:08.132Z,93601.98
2019-05-07T15:17:38.303Z,93608.73
2019-05-07T15:20:06.867Z,93602.27
2019-05-07T15:22:47.160Z,93598.91
2019-05-07T15:25:07.587Z,93596.25
2019-05-07T15:27:36.957Z,93595.38
2019-05-07T15:30:06.116Z,93596.88
2019-05-07T15:32:34.713Z,93597.00
2019-05-07T15:35:03.972Z,93591.42
2019-05-07T15:37:32.541Z,93593.61
2019-05-07T15:40:02.512Z,93587.63
2019-05-07T15:42:32.762Z,93588.80
2019-05-07T15:45:02.296Z,93591.42
2019-05-07T15:47:38.741Z,93591.43
2019-05-07T15:50:07.518Z,93589.55
2019-05-07T15:52:58.425Z,93586.91
2019-05-07T15:55:23.015Z,93587.62
2019-05-07T15:57:52.258Z,93589.38
2019-05-07T16:00:23.734Z,93586.52
2019-05-07T16:02:53.991Z,93585.00
2019-05-07T16:05:22.503Z,93578.84
2019-05-07T16:07:51.807Z,93589.39
2019-05-07T16:10:23.021Z,93581.61
2019-05-07T16:12:53.093Z,93575.47
2019-05-07T16:15:22.488Z,93577.09
2019-05-07T16:17:52.745Z,93575.68
2019-05-07T16:20:22.818Z,93580.97
2019-05-07T16:22:55.128Z,93580.73
2019-05-07T16:25:23.440Z,93573.39
2019-05-07T16:27:52.720Z,93568.41
2019-05-07T16:30:22.856Z,93569.73
2019-05-07T16:32:55.108Z,93559.22
2019-05-07T16:35:22.791Z,93563.02
2019-05-07T16:37:52.211Z,93557.43
2019-05-07T16:40:22.788Z,93555.09
2019-05-07T16:42:52.422Z,93561.68
2019-05-07T16:45:21.482Z,93558.89
2019-05-07T16:47:51.987Z,93553.30
2019-05-07T16:50:22.364Z,93555.75
2019-05-07T16:52:52.430Z,93552.75
2019-05-07T16:55:22.477Z,93545.50
2019-05-07T16:58:04.686Z,93553.20
2019-05-07T17:00:35.046Z,93548.50
2019-05-07T17:03:05.112Z,93545.27
2019-05-07T17:05:33.533Z,93543.23
2019-05-07T17:08:03.632Z,93536.49
2019-05-07T17:10:32.184Z,93538.89
2019-05-07T17:13:02.764Z,93547.45
2019-05-07T17:15:31.053Z,93540.27
2019-05-07T17:17:59.449Z,93540.41
2019-05-07T17:20:28.604Z,93538.65
2019-05-07T17:22:57.235Z,93535.27
2019-05-07T17:25:37.517Z,93538.91
2019-05-07T17:28:08.749Z,93532.81
2019-05-07T17:30:37.950Z,93529.98
2019-05-07T17:33:06.823Z,93529.98
2019-05-07T17:35:35.350Z,93522.69
2019-05-07T17:38:08.956Z,93531.38
2019-05-07T17:40:34.208Z,93523.63
2019-05-07T17:43:03.250Z,93524.78
2019-05-07T17:45:32.862Z,93527.27
2019-05-07T17:48:03.218Z,93519.16
2019-05-07T17:50:51.588Z,93522.70
2019-05-07T17:53:22.165Z,93525.94
2019-05-07T17:55:50.373Z,93521.78
2019-05-07T17:58:18.898Z,93518.98
2019-05-07T18:00:49.120Z,93516.64
2019-05-07T18:03:32.459Z,93511.82
2019-05-07T18:06:02.410Z,93510.05
2019-05-07T18:08:32.571Z,93515.64
2019-05-07T18:11:02.648Z,93514.50
2019-05-07T18:13:32.706Z,93520.19
2019-05-07T18:16:03.156Z,93517.52
2019-05-07T18:18:32.830Z,93511.39
2019-05-07T18:21:02.219Z,93506.64
2019-05-07T18:23:32.117Z,93501.05
2019-05-07T18:26:00.754Z,93510.23
2019-05-07T18:28:29.617Z,93509.82
2019-05-07T18:30:58.763Z,93504.48
2019-05-07T18:33:33.459Z,93512.08
2019-05-07T18:36:02.792Z,93516.64
2019-05-07T18:38:32.888Z,93512.25
2019-05-07T18:41:02.600Z,93505.04
2019-05-07T18:43:33.193Z,93504.47
2019-05-07T18:46:02.308Z,93506.67
2019-05-07T18:48:31.034Z,93507.73
2019-05-07T18:50:59.548Z,93512.98
2019-05-07T18:53:28.084Z,93510.78
2019-05-07T18:55:56.580Z,93505.11
2019-05-07T18:58:25.225Z,93511.36
2019-05-07T19:00:55.297Z,93507.16
2019-05-07T19:03:25.332Z,93512.70
2019-05-07T19:05:54.296Z,93512.52
2019-05-07T19:08:23.049Z,93511.59
2019-05-07T19:10:52.285Z,93519.27
2019-05-07T19:13:22.191Z,93525.31
2019-05-07T19:15:53.009Z,93521.68
2019-05-07T19:18:22.785Z,93523.69
2019-05-07T19:20:52.913Z,93521.16
2019-05-07T19:23:22.289Z,93517.64
2019-05-07T19:25:52.339Z,93517.42
2019-05-07T19:28:22.494Z,93515.71
2019-05-07T19:30:52.729Z,93525.08
2019-05-07T19:33:26.194Z,93526.69
2019-05-07T19:35:52.773Z,93529.79
2019-05-07T19:38:21.566Z,93533.34
2019-05-07T19:40:50.144Z,93532.02
2019-05-07T19:43:18.645Z,93520.78
2019-05-07T19:45:47.160Z,93525.09
2019-05-07T19:48:15.754Z,93519.59
2019-05-07T19:50:44.269Z,93524.69
2019-05-07T19:53:12.762Z,93526.31
2019-05-07T19:55:45.253Z,93519.59
2019-05-07T19:58:12.986Z,93533.08
2019-05-07T20:00:43.709Z,93529.30
2019-05-07T20:03:13.099Z,93527.72
2019-05-07T20:05:42.006Z,93529.07
2019-05-07T20:08:12.054Z,93531.69
2019-05-07T20:10:42.316Z,93526.76
2019-05-07T20:13:12.489Z,93518.64
2019-05-07T20:15:42.775Z,93516.75
2019-05-07T20:18:12.420Z,93518.19
2019-05-07T20:20:42.446Z,93518.34
2019-05-07T20:23:12.065Z,93520.57
2019-05-07T20:25:42.039Z,93516.81
2019-05-07T20:28:12.771Z,93515.73
2019-05-07T20:30:41.846Z,93511.62
2019-05-07T20:33:10.513Z,93490.78
2019-05-07T20:35:41.306Z,93471.45
2019-05-07T20:38:09.111Z,93461.41
2019-05-07T20:40:37.558Z,93467.84
2019-05-07T20:43:06.061Z,93455.67
2019-05-07T20:45:34.529Z,93448.14
2019-05-07T20:48:03.091Z,93452.06
2019-05-07T20:50:33.266Z,93447.94
2019-05-07T20:53:02.153Z,93454.41
2019-05-07T20:55:48.995Z,93448.09
2019-05-07T20:58:17.511Z,93448.09
2019-05-07T21:00:46.597Z,93451.98
2019-05-07T21:03:23.389Z,93449.58
2019-05-07T21:05:53.320Z,93453.55
2019-05-07T21:08:22.768Z,93445.25
2019-05-07T21:10:53.601Z,93440.88
2019-05-07T21:13:28.461Z,93441.24
2019-05-07T21:15:52.673Z,93439.94
2019-05-07T21:18:23.335Z,93441.24
2019-05-07T21:20:53.001Z,93443.48
2019-05-07T21:23:23.031Z,93444.57
2019-05-07T21:25:52.695Z,93450.80
2019-05-07T21:28:21.762Z,93449.34
2019-05-07T21:30:52.231Z,93445.80
2019-05-07T21:33:22.587Z,93447.10
2019-05-07T21:35:52.353Z,93450.80
2019-05-07T21:38:22.302Z,93449.26
2019-05-07T21:40:51.074Z,93440.47
2019-05-07T21:43:21.908Z,93439.16
2019-05-07T21:45:49.917Z,93434.42
2019-05-07T21:48:18.399Z,93431.27
2019-05-07T21:50:46.883Z,93433.11
2019-05-07T21:53:20.144Z,93427.26
2019-05-07T21:55:59.882Z,93426.30
2019-05-07T21:58:22.581Z,93422.70
2019-05-07T22:00:55.804Z,93420.49
2019-05-07T22:03:24.222Z,93417.02
2019-05-07T22:05:52.775Z,93415.57
2019-05-07T22:08:21.912Z,93416.79
2019-05-07T22:10:50.468Z,93420.03
2019-05-07T22:13:18.881Z,93414.58
2019-05-07T22:15:47.391Z,93416.88
2019-05-07T22:18:15.942Z,93410.39
2019-05-07T22:20:44.356Z,93404.62
2019-05-07T22:23:12.864Z,93412.09
2019-05-07T22:25:42.217Z,93414.48
2019-05-07T22:28:13.091Z,93414.03
2019-05-07T22:30:48.461Z,93413.32
2019-05-07T22:33:18.548Z,93409.22
2019-05-07T22:35:47.360Z,93408.55
2019-05-07T22:38:15.844Z,93414.94
2019-05-07T22:40:44.292Z,93413.27
2019-05-07T22:43:13.059Z,93403.64
2019-05-07T22:45:42.848Z,93401.56
2019-05-07T22:48:12.252Z,93398.72
2019-05-07T22:50:42.351Z,93398.17
2019-05-07T22:53:12.590Z,93392.27
2019-05-07T22:55:41.879Z,93383.80
2019-05-07T22:58:21.992Z,93381.81
2019-05-07T23:00:57.802Z,93376.48
2019-05-07T23:03:26.219Z,93365.36
2019-05-07T23:05:56.372Z,93365.04
2019-05-07T23:08:24.801Z,93354.27
2019-05-07T23:10:53.252Z,93349.71
2019-05-07T23:13:22.671Z,93346.88
2019-05-07T23:15:51.649Z,93338.23
2019-05-07T23:18:22.686Z,93330.56
2019-05-07T23:20:52.719Z,93335.20
2019-05-07T23:23:21.757Z,93334.22
2019-05-07T23:25:52.248Z,93336.15
2019-05-07T23:28:22.779Z,93330.61
2019-05-07T23:30:51.832Z,93331.73
2019-05-07T23:33:22.653Z,93337.92
2019-05-07T23:35:52.710Z,93336.20
2019-05-07T23:38:22.542Z,93330.20
2019-05-07T23:40:58.731Z,93330.75
2019-05-07T23:43:27.148Z,93333.73
2019-05-07T23:45:55.636Z,93325.58
2019-05-07T23:48:24.100Z,93333.36
2019-05-07T23:50:52.701Z,93337.78
2019-05-07T23:53:22.470Z,93337.64
2019-05-07T23:55:51.976Z,93337.41
2019-05-07T23:58:22.933Z,93339.31
